Time;durP1;ratioP1;P1;durP2;ratioP2;P2;SDS_P1;SDS_P2;PMS_P1;PMS_P2;Temp;Humidity;BMP_temperature;BMP_pressure;BME280_temperature;BME280_humidity;BME280_pressure;Samples;Min_cycle;Max_cycle;Signal;HPM_P1;HPM_P2
2021/07/09 00:02:52;;;;;;;19.57;13.33;;;;;;;17.03;100.00;102215.59;1970192;72;31186;-76
2021/07/09 00:08:15;;;;;;;17.47;14.00;;;;;;;17.07;100.00;102213.27;1970249;73;31129;-75
2021/07/09 00:13:45;;;;;;;20.10;14.00;;;;;;;17.14;100.00;102209.56;1970305;73;31030;-75
2021/07/09 00:19:11;;;;;;;18.60;14.80;;;;;;;17.09;100.00;102206.80;1970333;73;33413;-76
2021/07/09 00:24:35;;;;;;;21.00;15.63;;;;;;;17.02;100.00;102212.50;1970588;72;33735;-76
2021/07/09 00:30:00;;;;;;;20.43;15.70;;;;;;;17.00;100.00;102211.94;1937123;74;31649;-76
2021/07/09 00:35:25;;;;;;;23.20;16.30;;;;;;;16.95;100.00;102203.56;1970625;72;33528;-76
2021/07/09 00:40:50;;;;;;;22.47;16.10;;;;;;;17.07;100.00;102199.23;1970320;72;31020;-76
2021/07/09 00:46:15;;;;;;;24.33;16.17;;;;;;;16.98;100.00;102205.23;1970513;73;33026;-74
2021/07/09 00:51:40;;;;;;;20.50;15.97;;;;;;;17.06;100.00;102201.78;1970452;73;31556;-73
2021/07/09 00:57:06;;;;;;;21.83;15.93;;;;;;;17.13;100.00;102190.19;1970795;72;31042;-77
2021/07/09 01:02:32;;;;;;;21.90;15.97;;;;;;;17.04;100.00;102182.98;1970351;72;31069;-73
2021/07/09 01:07:56;;;;;;;20.43;15.83;;;;;;;16.97;100.00;102190.92;1970294;72;31164;-76
2021/07/09 01:13:20;;;;;;;22.33;16.47;;;;;;;17.06;100.00;102194.77;1970246;72;32981;-74
2021/07/09 01:18:46;;;;;;;20.00;14.80;;;;;;;17.03;100.00;102198.14;1970342;73;33051;-74
2021/07/09 01:24:12;;;;;;;21.73;15.40;;;;;;;17.04;100.00;102191.41;1970230;73;31080;-74
2021/07/09 01:29:36;;;;;;;20.57;15.70;;;;;;;16.95;100.00;102192.33;1970202;73;31029;-76
2021/07/09 01:35:02;;;;;;;18.83;14.77;;;;;;;16.91;100.00;102201.91;1970262;72;33071;-75
2021/07/09 01:40:29;;;;;;;22.90;16.00;;;;;;;16.97;100.00;102185.31;1970216;72;31025;-74
2021/07/09 01:45:54;;;;;;;21.63;15.03;;;;;;;17.02;100.00;102179.65;1970337;72;33062;-77
2021/07/09 01:51:19;;;;;;;23.63;15.70;;;;;;;16.95;100.00;102168.47;1970265;73;31106;-75
2021/07/09 01:56:43;;;;;;;20.87;15.27;;;;;;;17.04;100.00;102172.31;1970215;72;31061;-74
2021/07/09 02:02:08;;;;;;;16.97;15.17;;;;;;;16.91;100.00;102187.04;1970654;72;31608;-74
2021/07/09 02:07:44;;;;;;;20.33;15.60;;;;;;;16.97;100.00;102178.29;1970416;73;30967;-74
2021/07/09 02:13:11;;;;;;;21.87;15.07;;;;;;;17.01;100.00;102178.53;1970389;72;31020;-76
2021/07/09 02:18:36;;;;;;;19.17;14.90;;;;;;;16.97;100.00;102179.69;1970112;73;33018;-76
2021/07/09 02:24:01;;;;;;;18.83;14.67;;;;;;;16.97;100.00;102174.64;1970434;72;33486;-74
2021/07/09 02:29:31;;;;;;;18.37;14.30;;;;;;;16.96;100.00;102171.56;1970274;72;32984;-76
2021/07/09 02:34:56;;;;;;;21.83;15.40;;;;;;;16.86;100.00;102171.08;1970402;73;33448;-76
2021/07/09 02:40:22;;;;;;;21.97;15.63;;;;;;;16.94;100.00;102166.27;1970240;72;33050;-76
2021/07/09 02:45:48;;;;;;;19.97;15.13;;;;;;;17.02;100.00;102161.97;1970115;73;33515;-74
2021/07/09 02:51:14;;;;;;;21.17;15.17;;;;;;;16.91;100.00;102149.98;1970428;72;33497;-77
2021/07/09 02:56:39;;;;;;;20.50;16.23;;;;;;;16.79;100.00;102155.17;1970352;72;31037;-76
2021/07/09 03:02:03;;;;;;;19.37;15.47;;;;;;;16.80;100.00;102153.48;1970303;72;33417;-74
2021/07/09 03:07:28;;;;;;;21.17;15.43;;;;;;;16.74;100.00;102155.20;1970252;72;31014;-76
2021/07/09 03:12:52;;;;;;;21.13;15.83;;;;;;;16.82;100.00;102144.74;1970480;72;31096;-75
2021/07/09 03:18:17;;;;;;;22.03;15.50;;;;;;;16.88;100.00;102146.94;1970324;73;31012;-75
2021/07/09 03:23:41;;;;;;;21.70;15.57;;;;;;;16.85;100.00;102139.97;1970291;73;33180;-74
2021/07/09 03:29:05;;;;;;;21.17;15.37;;;;;;;16.83;100.00;102130.98;1970211;72;31674;-76
2021/07/09 03:34:30;;;;;;;19.10;14.23;;;;;;;16.83;100.00;102131.83;1970561;73;31173;-76
2021/07/09 03:39:54;;;;;;;22.43;15.20;;;;;;;16.79;100.00;102129.34;1970385;73;31041;-74
2021/07/09 03:45:21;;;;;;;23.07;15.30;;;;;;;16.76;100.00;102139.77;1970336;73;33565;-76
2021/07/09 03:50:48;;;;;;;19.37;15.40;;;;;;;16.77;100.00;102133.59;1970413;72;33104;-74
2021/07/09 03:56:12;;;;;;;18.37;14.97;;;;;;;16.71;100.00;102138.97;1970413;72;31028;-74
2021/07/09 04:01:37;;;;;;;18.53;13.63;;;;;;;16.81;100.00;102138.29;1912254;72;39673;-74
2021/07/09 04:07:01;;;;;;;17.13;13.57;;;;;;;16.70;100.00;102138.13;1970458;73;33436;-76
2021/07/09 04:12:26;;;;;;;19.17;14.67;;;;;;;16.73;100.00;102144.55;1970475;72;31089;-74
2021/07/09 04:17:50;;;;;;;17.20;14.63;;;;;;;16.71;100.00;102147.39;1970246;73;31083;-74
2021/07/09 04:23:15;;;;;;;17.13;14.03;;;;;;;16.67;100.00;102151.92;1970158;73;33045;-74
2021/07/09 04:28:39;;;;;;;18.50;14.80;;;;;;;16.68;100.00;102162.02;1970319;72;31102;-74
2021/07/09 04:34:04;;;;;;;16.30;13.23;;;;;;;16.76;100.00;102159.41;1970330;73;33512;-74
2021/07/09 04:39:47;;;;;;;17.17;13.53;;;;;;;16.87;100.00;102153.68;1945972;74;33060;-76
2021/07/09 04:45:13;;;;;;;14.13;12.67;;;;;;;16.73;100.00;102159.14;1970280;72;31732;-74
2021/07/09 04:50:39;;;;;;;15.90;13.47;;;;;;;16.79;100.00;102156.57;1970166;72;31783;-74
2021/07/09 04:56:03;;;;;;;17.90;13.03;;;;;;;16.78;100.00;102177.34;1970086;72;31089;-74
2021/07/09 05:01:34;;;;;;;13.67;12.23;;;;;;;16.94;100.00;102173.28;1970457;73;31019;-73
2021/07/09 05:07:07;;;;;;;16.43;12.63;;;;;;;16.78;100.00;102175.94;1936704;73;31076;-72
2021/07/09 05:12:32;;;;;;;14.17;12.07;;;;;;;16.73;100.00;102175.41;1970452;73;33477;-72
2021/07/09 05:17:56;;;;;;;14.23;12.47;;;;;;;16.89;100.00;102176.13;1970439;72;31080;-75
2021/07/09 05:29:32;;;;;;;16.20;12.90;;;;;;;16.91;100.00;102177.22;1970701;72;31099;-74
2021/07/09 05:34:58;;;;;;;15.00;12.00;;;;;;;16.97;100.00;102173.23;1970801;72;32904;-74
2021/07/09 05:40:23;;;;;;;14.53;12.03;;;;;;;16.95;100.00;102174.09;1970347;73;33104;-74
2021/07/09 05:45:48;;;;;;;14.60;11.77;;;;;;;17.02;100.00;102183.86;1970649;73;31519;-75
2021/07/09 05:51:13;;;;;;;14.17;11.37;;;;;;;17.14;100.00;102191.88;1970368;73;33093;-73
2021/07/09 05:56:39;;;;;;;12.33;10.53;;;;;;;17.27;100.00;102193.41;1970762;72;30992;-72
2021/07/09 06:02:04;;;;;;;13.70;11.40;;;;;;;17.24;100.00;102195.39;1970419;72;31020;-74
2021/07/09 06:07:29;;;;;;;14.43;10.87;;;;;;;17.30;100.00;102196.18;1970618;73;33560;-74
2021/07/09 06:12:53;;;;;;;13.47;10.63;;;;;;;17.29;100.00;102191.12;1970468;73;30980;-75
2021/07/09 06:18:18;;;;;;;12.60;10.23;;;;;;;17.35;100.00;102192.48;1970331;72;31019;-74
2021/07/09 06:23:43;;;;;;;11.93;9.47;;;;;;;17.48;100.00;102200.20;1970694;73;33621;-74
2021/07/09 06:29:09;;;;;;;10.93;9.10;;;;;;;17.53;100.00;102195.36;1970434;73;30924;-75
2021/07/09 06:34:34;;;;;;;10.53;9.30;;;;;;;17.62;100.00;102199.79;1970426;72;31019;-74
2021/07/09 06:40:02;;;;;;;11.30;9.57;;;;;;;17.63;100.00;102198.06;1972477;72;31152;-76
2021/07/09 06:45:26;;;;;;;11.60;9.63;;;;;;;17.85;100.00;102207.34;1971151;72;31599;-76
2021/07/09 06:50:51;;;;;;;11.47;9.10;;;;;;;17.77;100.00;102206.61;1970537;73;33377;-76
2021/07/09 06:56:15;;;;;;;10.43;9.33;;;;;;;17.87;100.00;102202.27;1970568;72;31479;-73
2021/07/09 07:01:59;;;;;;;13.03;8.80;;;;;;;17.96;100.00;102200.46;1946113;74;33106;-75
2021/07/09 07:07:23;;;;;;;10.30;8.87;;;;;;;18.05;100.00;102195.84;1957700;73;31013;-75
2021/07/09 07:12:48;;;;;;;10.60;9.30;;;;;;;18.14;100.00;102208.65;1970300;72;31012;-75
2021/07/09 07:18:13;;;;;;;11.53;9.07;;;;;;;18.20;100.00;102199.82;1970201;73;30992;-75
2021/07/09 07:23:38;;;;;;;9.73;8.73;;;;;;;18.48;100.00;102199.37;1970173;72;31006;-74
2021/07/09 07:29:03;;;;;;;10.57;9.10;;;;;;;18.65;100.00;102197.47;1970777;72;31037;-77
2021/07/09 07:34:27;;;;;;;10.53;8.93;;;;;;;18.77;100.00;102192.76;1970524;73;31048;-73
2021/07/09 07:39:52;;;;;;;11.47;9.03;;;;;;;18.89;100.00;102195.92;1970534;72;30988;-76
2021/07/09 07:45:16;;;;;;;10.23;7.83;;;;;;;18.99;100.00;102199.41;1944045;74;31121;-73
2021/07/09 07:50:41;;;;;;;10.87;8.50;;;;;;;19.63;100.00;102193.39;1970651;72;30904;-74
2021/07/09 07:56:07;;;;;;;10.30;9.07;;;;;;;19.25;100.00;102188.50;1970394;72;30991;-72
2021/07/09 08:01:32;;;;;;;8.43;7.50;;;;;;;19.46;100.00;102190.37;1970492;72;31067;-72
2021/07/09 08:06:57;;;;;;;11.50;8.10;;;;;;;19.54;100.00;102188.22;1970597;72;30992;-72
2021/07/09 08:12:21;;;;;;;9.23;7.63;;;;;;;19.63;100.00;102187.75;1970877;72;30981;-70
2021/07/09 08:17:45;;;;;;;8.20;7.43;;;;;;;19.85;100.00;102184.19;1970627;73;31139;-72
2021/07/09 08:23:12;;;;;;;9.77;7.83;;;;;;;20.11;100.00;102183.84;1970534;72;31095;-75
2021/07/09 08:28:36;;;;;;;10.33;8.10;;;;;;;20.35;100.00;102175.98;1970258;73;30971;-75
2021/07/09 08:34:00;;;;;;;8.17;7.37;;;;;;;20.47;100.00;102178.80;1970596;72;30938;-75
2021/07/09 08:39:24;;;;;;;9.43;8.53;;;;;;;20.66;100.00;102172.41;1970885;72;30986;-75
2021/07/09 08:44:49;;;;;;;9.40;7.93;;;;;;;21.16;100.00;102162.61;1970402;73;31048;-73
2021/07/09 08:50:14;;;;;;;8.63;7.83;;;;;;;21.15;100.00;102162.34;1970817;72;31055;-77
2021/07/09 08:55:39;;;;;;;8.53;7.63;;;;;;;21.09;100.00;102152.33;1970867;73;31673;-74
2021/07/09 09:01:06;;;;;;;10.80;8.30;;;;;;;21.00;100.00;102148.63;1970907;72;31018;-76
2021/07/09 09:06:32;;;;;;;8.33;7.53;;;;;;;21.00;100.00;102147.78;1970552;72;30943;-74
2021/07/09 09:12:11;;;;;;;9.53;8.07;;;;;;;21.18;100.00;102141.90;1970863;72;31543;-76
2021/07/09 09:17:38;;;;;;;10.07;9.07;;;;;;;21.32;100.00;102136.98;1970728;73;31580;-72
2021/07/09 09:23:08;;;;;;;9.20;8.20;;;;;;;21.24;100.00;102138.36;1970776;73;31565;-72
2021/07/09 09:28:40;;;;;;;9.90;8.50;;;;;;;21.95;100.00;102140.52;1970705;73;30996;-72
2021/07/09 09:34:07;;;;;;;8.10;7.37;;;;;;;22.05;100.00;102123.19;1970625;73;30977;-76
2021/07/09 09:39:32;;;;;;;9.53;7.97;;;;;;;22.17;100.00;102120.53;1970556;72;31079;-72
2021/07/09 09:45:12;;;;;;;8.70;7.80;;;;;;;22.41;100.00;102112.95;1970728;73;31593;-73
2021/07/09 09:50:45;;;;;;;9.97;8.23;;;;;;;22.66;100.00;102114.33;1970880;72;31108;-76
2021/07/09 09:56:11;;;;;;;10.00;9.00;;;;;;;22.68;100.00;102110.56;1970573;72;31031;-76
2021/07/09 10:01:35;;;;;;;10.38;9.35;;;;;;;22.74;100.00;102117.50;1970848;72;31530;-73
2021/07/09 10:07:01;;;;;;;10.35;9.25;;;;;;;22.62;100.00;102111.92;1970512;73;30917;-76
2021/07/09 10:12:28;;;;;;;9.43;8.53;;;;;;;22.74;100.00;102111.84;1970479;72;31238;-76
2021/07/09 10:17:54;;;;;;;10.68;9.40;;;;;;;22.65;100.00;102114.08;1970414;72;31109;-72
2021/07/09 10:23:22;;;;;;;11.73;9.50;;;;;;;22.73;100.00;102112.42;1970466;72;31182;-74
2021/07/09 10:29:10;;;;;;;9.88;8.95;;;;;;;22.83;100.00;102107.81;1970679;72;31489;-75
2021/07/09 10:34:38;;;;;;;9.45;8.45;;;;;;;22.95;100.00;102106.52;1970676;72;31025;-76
2021/07/09 10:40:10;;;;;;;8.20;7.40;;;;;;;22.54;100.00;102066.05;1970644;72;31467;-72
2021/07/09 10:45:42;;;;;;;7.70;6.45;;;;;;;23.01;100.00;102106.59;1970248;72;31193;-73
2021/07/09 10:51:09;;;;;;;6.67;6.03;;;;;;;23.03;100.00;102111.91;1970551;73;31379;-70
2021/07/09 10:56:35;;;;;;;7.47;6.75;;;;;;;22.96;100.00;102109.61;1970295;73;31215;-76
2021/07/09 11:01:59;;;;;;;6.80;6.20;;;;;;;23.14;100.00;102101.88;1970565;72;31004;-73
2021/07/09 11:07:32;;;;;;;6.15;5.55;;;;;;;22.89;100.00;102091.47;1970463;73;31391;-72
2021/07/09 11:12:56;;;;;;;6.20;5.25;;;;;;;22.50;100.00;102087.72;1970391;73;31062;-75
2021/07/09 11:18:20;;;;;;;7.45;5.72;;;;;;;22.35;100.00;102080.30;1970265;73;30976;-73
2021/07/09 11:23:53;;;;;;;6.87;5.47;;;;;;;22.22;100.00;102089.23;1970485;73;31084;-73
2021/07/09 11:29:26;;;;;;;7.42;6.70;;;;;;;22.18;100.00;102085.41;1970556;72;31469;-74
2021/07/09 11:34:53;;;;;;;6.37;5.78;;;;;;;22.42;100.00;102076.41;1970456;72;30956;-73
2021/07/09 11:40:19;;;;;;;6.42;5.83;;;;;;;22.10;100.00;102074.92;1970403;72;31025;-75
2021/07/09 11:45:44;;;;;;;7.28;6.65;;;;;;;22.11;100.00;102076.02;1970427;73;31455;-74
2021/07/09 11:51:08;;;;;;;6.28;5.78;;;;;;;22.32;100.00;102066.25;1970444;73;31592;-74
2021/07/09 11:56:40;;;;;;;6.40;5.85;;;;;;;22.33;100.00;102061.42;1970440;73;32194;-75
2021/07/09 12:02:14;;;;;;;7.20;4.95;;;;;;;22.18;100.00;102066.42;1970391;72;31055;-75
2021/07/09 12:07:41;;;;;;;5.50;5.05;;;;;;;22.55;100.00;102060.61;1970353;73;31013;-74
2021/07/09 12:13:08;;;;;;;5.60;5.20;;;;;;;22.82;100.00;102055.72;1970476;72;31172;-75
2021/07/09 12:18:33;;;;;;;5.85;5.30;;;;;;;23.14;100.00;102047.44;1970610;72;31013;-73
2021/07/09 12:24:06;;;;;;;5.87;5.22;;;;;;;23.16;100.00;102045.65;1970602;72;31390;-73
2021/07/09 12:29:31;;;;;;;4.92;4.47;;;;;;;23.27;100.00;102042.69;1970727;72;30982;-72
2021/07/09 12:35:12;;;;;;;5.90;5.35;;;;;;;23.08;100.00;102028.94;1970466;73;31427;-74
2021/07/09 12:40:39;;;;;;;5.70;5.20;;;;;;;23.12;100.00;102033.34;1970707;72;31545;-75
2021/07/09 12:46:24;;;;;;;8.85;4.95;;;;;;;23.20;100.00;102028.78;1970438;72;31041;-72
2021/07/09 12:51:52;;;;;;;5.55;5.05;;;;;;;23.25;100.00;102025.76;1970634;72;31001;-74
2021/07/09 12:57:20;;;;;;;5.22;4.70;;;;;;;23.33;100.00;102024.29;1970451;73;31105;-72
2021/07/09 13:02:55;;;;;;;4.62;4.22;;;;;;;23.43;100.00;102008.33;1970562;73;31066;-74
2021/07/09 13:08:21;;;;;;;8.80;5.05;;;;;;;23.11;100.00;102005.57;1970510;73;30964;-74
2021/07/09 13:13:59;;;;;;;4.60;4.00;;;;;;;22.96;100.00;102007.59;1970730;72;31492;-77
2021/07/09 13:19:35;;;;;;;5.65;4.90;;;;;;;23.06;100.00;101999.29;1970479;73;31541;-77
2021/07/09 13:25:11;;;;;;;5.08;4.65;;;;;;;23.49;100.00;101988.50;1970366;72;31043;-75
2021/07/09 13:30:38;;;;;;;5.97;5.03;;;;;;;23.16;100.00;101988.95;1970381;72;31122;-78
2021/07/09 13:36:08;;;;;;;4.72;4.33;;;;;;;23.38;100.00;101986.39;1970676;72;30993;-77
2021/07/09 13:41:32;;;;;;;7.40;4.90;;;;;;;23.32;100.00;101979.28;1970518;72;30999;-75
2021/07/09 13:46:58;;;;;;;5.08;4.67;;;;;;;23.22;100.00;101979.67;1970608;72;31474;-74
2021/07/09 13:52:22;;;;;;;5.85;5.08;;;;;;;22.89;100.00;101982.37;1970632;72;31102;-77
2021/07/09 13:57:47;;;;;;;5.70;4.85;;;;;;;22.90;100.00;101982.59;1970445;72;30975;-72
2021/07/09 14:03:13;;;;;;;5.67;4.70;;;;;;;22.96;100.00;101967.08;1970550;73;31050;-73
2021/07/09 14:08:38;;;;;;;6.05;5.35;;;;;;;23.15;100.00;101957.52;1970535;72;31074;-78
2021/07/09 14:14:03;;;;;;;4.97;4.58;;;;;;;23.27;100.00;101953.96;1970461;72;31102;-78
2021/07/09 14:19:27;;;;;;;4.25;3.92;;;;;;;23.13;100.00;101963.55;1970585;72;31464;-74
2021/07/09 14:24:50;;;;;;;4.35;3.95;;;;;;;23.21;100.00;101942.56;1970609;72;31094;-77
2021/07/09 14:30:18;;;;;;;5.62;4.85;;;;;;;23.15;100.00;101943.34;1971903;72;31137;-78
2021/07/09 14:35:48;;;;;;;7.78;4.90;;;;;;;23.06;100.00;101937.73;1970450;73;30939;-74
2021/07/09 14:41:15;;;;;;;4.10;3.80;;;;;;;23.05;100.00;101929.59;1970514;72;31042;-74
2021/07/09 14:46:40;;;;;;;5.75;4.78;;;;;;;22.95;100.00;101932.23;1970513;72;30995;-78
2021/07/09 14:52:05;;;;;;;3.58;3.05;;;;;;;23.01;100.00;101932.88;1970576;72;32325;-75
2021/07/09 14:57:29;;;;;;;2.92;2.62;;;;;;;23.23;100.00;101919.80;1970696;72;31480;-75
2021/07/09 15:02:56;;;;;;;4.90;3.42;;;;;;;23.38;100.00;101917.75;1970545;73;30952;-75
2021/07/09 15:08:20;;;;;;;3.87;2.87;;;;;;;23.47;100.00;101921.37;1970751;72;31527;-76
2021/07/09 15:13:44;;;;;;;3.30;3.00;;;;;;;23.44;100.00;101922.08;1970812;72;31020;-73
2021/07/09 15:19:11;;;;;;;3.77;2.87;;;;;;;23.38;100.00;101922.59;1970781;72;30983;-76
2021/07/09 15:24:36;;;;;;;4.30;3.10;;;;;;;23.30;100.00;101912.15;1970953;72;30975;-75
2021/07/09 15:30:02;;;;;;;2.98;2.77;;;;;;;23.31;100.00;101917.48;1970482;73;31070;-77
2021/07/09 15:35:27;;;;;;;3.50;3.20;;;;;;;23.27;100.00;101919.94;1970557;72;31002;-76
2021/07/09 15:40:52;;;;;;;3.83;3.52;;;;;;;23.28;100.00;101914.48;1970621;72;31530;-76
2021/07/09 15:46:16;;;;;;;4.22;3.45;;;;;;;23.18;100.00;101916.33;1970445;72;30945;-76
2021/07/09 15:51:41;;;;;;;4.12;3.72;;;;;;;23.13;100.00;101911.70;1970747;72;31017;-76
2021/07/09 15:57:06;;;;;;;4.25;3.85;;;;;;;23.05;100.00;101904.09;1970377;73;30942;-74
2021/07/09 16:02:32;;;;;;;4.80;4.25;;;;;;;23.05;100.00;101912.00;1970525;72;31462;-74
2021/07/09 16:07:57;;;;;;;4.58;3.87;;;;;;;22.82;100.00;101906.98;1970624;73;31523;-75
2021/07/09 16:13:21;;;;;;;4.85;4.08;;;;;;;22.87;100.00;101912.45;1970570;72;31115;-73
2021/07/09 16:18:45;;;;;;;4.20;3.77;;;;;;;22.79;100.00;101907.09;1970602;73;30996;-75
2021/07/09 16:24:10;;;;;;;4.42;3.80;;;;;;;22.69;100.00;101905.47;1970616;72;31443;-74
2021/07/09 16:29:35;;;;;;;3.75;3.45;;;;;;;22.58;100.00;101904.18;1970658;73;31048;-72
2021/07/09 16:35:00;;;;;;;3.83;3.52;;;;;;;22.58;100.00;101898.52;1970678;72;31001;-76
2021/07/09 16:40:25;;;;;;;3.75;2.90;;;;;;;22.57;100.00;101902.52;1970659;72;31516;-76
2021/07/09 16:45:49;;;;;;;3.98;3.22;;;;;;;22.62;100.00;101898.66;1970424;72;30986;-76
2021/07/09 16:51:14;;;;;;;3.25;2.83;;;;;;;22.65;100.00;101894.55;1970461;72;31042;-75
2021/07/09 16:56:59;;;;;;;2.92;2.70;;;;;;;22.67;100.00;101904.13;1946541;74;31007;-77
2021/07/09 17:02:24;;;;;;;3.22;2.83;;;;;;;22.68;100.00;101887.36;1970378;72;31036;-77
2021/07/09 17:07:51;;;;;;;2.70;2.50;;;;;;;22.73;100.00;101887.20;1970204;72;31054;-71
2021/07/09 17:13:15;;;;;;;2.35;1.82;;;;;;;22.67;100.00;101894.22;1972031;72;30928;-81
2021/07/09 17:18:40;;;;;;;2.55;2.35;;;;;;;22.56;100.00;101893.77;1972183;73;31439;-81
2021/07/09 17:24:04;;;;;;;2.30;2.05;;;;;;;22.68;100.00;101897.27;1970645;73;31398;-78
2021/07/09 17:29:36;;;;;;;3.62;2.12;;;;;;;22.65;100.00;101890.88;1971904;72;30988;-80
2021/07/09 17:35:09;;;;;;;4.03;2.15;;;;;;;22.77;100.00;101892.42;1969955;73;31003;-72
2021/07/09 17:40:34;;;;;;;2.58;2.37;;;;;;;22.35;100.00;101888.63;1970093;72;31128;-78
2021/07/09 17:46:02;;;;;;;2.20;1.90;;;;;;;22.21;100.00;101890.83;1970448;73;31006;-77
2021/07/09 17:51:27;;;;;;;2.10;2.00;;;;;;;22.12;100.00;101883.79;1971810;72;30933;-79
2021/07/09 17:56:52;;;;;;;2.30;2.10;;;;;;;22.05;100.00;101879.83;1972177;73;30984;-79
2021/07/09 18:02:20;;;;;;;2.08;1.95;;;;;;;21.99;100.00;101890.48;1972090;73;31015;-80
2021/07/09 18:07:44;;;;;;;2.07;1.87;;;;;;;21.94;100.00;101875.71;1970558;73;31054;-78
2021/07/09 18:13:09;;;;;;;2.27;1.62;;;;;;;21.92;100.00;101881.70;1970381;72;31517;-76
2021/07/09 18:18:33;;;;;;;1.52;1.42;;;;;;;21.82;100.00;101886.28;1970454;72;30986;-75
2021/07/09 18:23:58;;;;;;;1.70;1.60;;;;;;;21.60;100.00;101886.48;1971930;73;31004;-86
2021/07/09 18:29:23;;;;;;;1.50;1.40;;;;;;;21.67;100.00;101893.87;1970187;73;30953;-74
2021/07/09 18:34:47;;;;;;;2.45;1.80;;;;;;;21.42;100.00;101891.32;1970411;73;30921;-71
2021/07/09 18:40:15;;;;;;;1.70;1.30;;;;;;;21.41;100.00;101885.98;1970428;72;30975;-70
2021/07/09 18:45:39;;;;;;;2.02;1.55;;;;;;;21.36;100.00;101886.98;1970541;72;31398;-78
2021/07/09 18:51:05;;;;;;;2.62;1.50;;;;;;;21.27;100.00;101885.58;1970404;72;31078;-78
2021/07/09 18:56:29;;;;;;;2.30;1.50;;;;;;;21.06;100.00;101898.66;1970518;72;31030;-79
2021/07/09 19:01:53;;;;;;;2.08;1.10;;;;;;;21.08;100.00;101889.87;1970562;72;30900;-79
2021/07/09 19:07:18;;;;;;;1.70;1.60;;;;;;;20.84;100.00;101898.21;1970595;73;30957;-78
2021/07/09 19:12:45;;;;;;;1.15;1.05;;;;;;;20.86;100.00;101901.55;1970379;72;31114;-73
2021/07/09 19:18:11;;;;;;;2.20;1.17;;;;;;;20.66;100.00;101910.65;1970231;73;31023;-76
2021/07/09 19:23:35;;;;;;;1.13;1.03;;;;;;;20.60;100.00;101920.98;1970409;73;33494;-74
2021/07/09 19:28:59;;;;;;;1.55;1.10;;;;;;;20.46;100.00;101918.27;1972065;72;30974;-80
2021/07/09 19:34:24;;;;;;;1.67;1.10;;;;;;;20.53;100.00;101917.82;1970396;72;31580;-76
2021/07/09 19:39:49;;;;;;;1.20;1.03;;;;;;;20.47;100.00;101919.11;1970145;73;30972;-75
2021/07/09 19:45:15;;;;;;;1.80;1.40;;;;;;;20.23;100.00;101922.31;1970290;73;31046;-77
2021/07/09 19:50:40;;;;;;;1.30;1.20;;;;;;;20.12;100.00;101914.69;1970635;72;31675;-74
2021/07/09 19:56:06;;;;;;;2.27;1.50;;;;;;;19.97;100.00;101911.72;1970455;72;30977;-74
2021/07/09 20:01:33;;;;;;;1.27;1.17;;;;;;;19.90;100.00;101922.61;1970250;73;30997;-74
2021/07/09 20:06:57;;;;;;;1.63;1.33;;;;;;;19.91;100.00;101934.72;1970446;73;31018;-81
2021/07/09 20:12:21;;;;;;;1.40;1.30;;;;;;;19.84;100.00;101935.77;1970536;73;31387;-71
2021/07/09 20:17:45;;;;;;;1.33;1.17;;;;;;;19.65;100.00;101943.00;1970431;72;33032;-72
2021/07/09 20:23:12;;;;;;;1.10;1.00;;;;;;;19.61;100.00;101945.36;1970453;73;30962;-75
2021/07/09 20:28:38;;;;;;;1.90;1.50;;;;;;;19.48;100.00;101954.12;1970358;72;31010;-73
2021/07/09 20:34:03;;;;;;;1.63;1.23;;;;;;;19.47;100.00;101950.47;1970311;73;31001;-71
2021/07/09 20:39:28;;;;;;;1.40;1.30;;;;;;;19.41;100.00;101957.94;1970447;72;31401;-71
2021/07/09 20:44:53;;;;;;;2.00;1.40;;;;;;;19.29;100.00;101959.08;1970296;72;30969;-75
2021/07/09 20:50:17;;;;;;;2.97;1.57;;;;;;;19.24;100.00;101962.84;1970592;72;31005;-75
2021/07/09 20:55:42;;;;;;;1.53;1.43;;;;;;;19.10;100.00;101961.45;1970447;73;33000;-74
2021/07/09 21:01:06;;;;;;;2.37;1.57;;;;;;;19.19;100.00;101958.73;1970275;73;30953;-73
2021/07/09 21:06:31;;;;;;;3.77;1.97;;;;;;;18.98;100.00;101955.53;1970179;73;31048;-73
2021/07/09 21:11:55;;;;;;;2.13;1.93;;;;;;;18.93;100.00;101950.01;1970253;72;31019;-72
2021/07/09 21:17:20;;;;;;;1.60;1.50;;;;;;;18.78;100.00;101950.35;1970474;72;31495;-73
2021/07/09 21:22:45;;;;;;;1.87;1.60;;;;;;;18.71;100.00;101940.06;1935576;73;31016;-74
2021/07/09 21:28:08;;;;;;;1.60;1.50;;;;;;;18.78;100.00;101939.09;1970431;73;31410;-71
2021/07/09 21:33:33;;;;;;;1.67;1.57;;;;;;;18.55;100.00;101943.78;1972144;72;31502;-79
2021/07/09 21:38:57;;;;;;;2.23;1.70;;;;;;;18.45;100.00;101939.72;1970442;72;30948;-71
2021/07/09 21:44:21;;;;;;;2.33;1.70;;;;;;;18.42;100.00;101938.95;1970447;72;31028;-70
2021/07/09 21:49:46;;;;;;;2.70;1.80;;;;;;;18.25;100.00;101944.91;1970344;72;30947;-72
2021/07/09 21:55:12;;;;;;;2.43;2.10;;;;;;;18.34;100.00;101940.24;1970396;72;31022;-72
2021/07/09 22:00:37;;;;;;;4.23;1.90;;;;;;;18.28;100.00;101945.13;1970279;73;30982;-69
2021/07/09 22:06:01;;;;;;;2.77;2.10;;;;;;;18.17;100.00;101941.69;1970369;72;31618;-70
2021/07/09 22:11:26;;;;;;;4.77;2.30;;;;;;;18.15;100.00;101945.37;1970360;73;31035;-70
2021/07/09 22:16:50;;;;;;;2.80;2.30;;;;;;;18.04;100.00;101945.87;1970123;73;31066;-74
2021/07/09 22:22:15;;;;;;;3.27;2.13;;;;;;;18.08;100.00;101946.92;1944774;72;32979;-74
2021/07/09 22:27:40;;;;;;;2.80;1.77;;;;;;;17.89;100.00;101942.75;1970760;73;31432;-69
2021/07/09 22:33:07;;;;;;;2.17;1.97;;;;;;;17.66;100.00;101940.91;1970931;73;31131;-70
2021/07/09 22:38:35;;;;;;;1.90;1.80;;;;;;;17.46;100.00;101948.21;1970437;73;31075;-73
2021/07/09 22:44:00;;;;;;;2.47;1.80;;;;;;;17.53;100.00;101941.66;1970852;72;30933;-70
2021/07/09 22:49:24;;;;;;;2.17;1.83;;;;;;;17.50;100.00;101940.28;1970761;72;31012;-73
2021/07/09 22:54:49;;;;;;;2.87;1.87;;;;;;;17.39;100.00;101942.16;1970705;73;31075;-72
2021/07/09 23:00:15;;;;;;;2.00;1.77;;;;;;;17.33;100.00;101950.41;1970720;73;33095;-70
2021/07/09 23:05:39;;;;;;;2.03;1.70;;;;;;;17.16;100.00;101955.13;1970618;73;33014;-70
2021/07/09 23:11:04;;;;;;;1.90;1.73;;;;;;;17.05;100.00;101938.17;1970882;72;31062;-73
2021/07/09 23:16:28;;;;;;;3.43;2.00;;;;;;;16.94;100.00;101934.69;1970693;72;30909;-69
2021/07/09 23:22:12;;;;;;;2.40;2.10;;;;;;;16.97;100.00;101917.23;1913154;74;31019;-70
2021/07/09 23:27:37;;;;;;;2.30;1.77;;;;;;;16.84;100.00;101922.19;1970753;72;30957;-70
2021/07/09 23:33:04;;;;;;;2.23;1.93;;;;;;;16.72;100.00;101918.98;1970760;72;33385;-70
2021/07/09 23:38:29;;;;;;;3.37;2.13;;;;;;;16.53;100.00;101923.67;1970690;73;30978;-73
2021/07/09 23:43:54;;;;;;;4.07;2.20;;;;;;;16.63;100.00;101922.18;1970556;73;31080;-73
2021/07/09 23:49:18;;;;;;;2.30;2.03;;;;;;;16.62;100.00;101908.72;1971081;72;33425;-70
2021/07/09 23:54:43;;;;;;;2.80;1.73;;;;;;;16.72;100.00;101912.81;1971097;72;33466;-73
